sensor_id;sensor_type;location;lat;lon;timestamp;temperature;humidity
7648;DHT22;3866;48.020;11.720;2023-03-04T00:01:35;0.70;99.90
7648;DHT22;3866;48.020;11.720;2023-03-04T00:04:01;0.60;99.90
7648;DHT22;3866;48.020;11.720;2023-03-04T00:06:28;0.60;99.90
7648;DHT22;3866;48.020;11.720;2023-03-04T00:08:55;0.50;99.90
7648;DHT22;3866;48.020;11.720;2023-03-04T00:11:22;0.50;99.90
7648;DHT22;3866;48.020;11.720;2023-03-04T00:13:49;0.40;99.90
7648;DHT22;3866;48.020;11.720;2023-03-04T00:16:16;0.30;99.90
7648;DHT22;3866;48.020;11.720;2023-03-04T00:18:44;0.40;99.90
7648;DHT22;3866;48.020;11.720;2023-03-04T00:21:11;0.60;99.90
7648;DHT22;3866;48.020;11.720;2023-03-04T00:23:38;0.60;99.90
7648;DHT22;3866;48.020;11.720;2023-03-04T00:26:05;0.70;99.90
7648;DHT22;3866;48.020;11.720;2023-03-04T00:28:34;0.70;99.90
7648;DHT22;3866;48.020;11.720;2023-03-04T00:31:01;0.80;99.90
7648;DHT22;3866;48.020;11.720;2023-03-04T00:33:28;0.90;99.90
7648;DHT22;3866;48.020;11.720;2023-03-04T00:35:56;0.90;99.90
7648;DHT22;3866;48.020;11.720;2023-03-04T00:38:23;0.80;99.90
7648;DHT22;3866;48.020;11.720;2023-03-04T00:40:50;0.80;99.90
7648;DHT22;3866;48.020;11.720;2023-03-04T00:43:17;0.90;99.90
7648;DHT22;3866;48.020;11.720;2023-03-04T00:45:44;0.80;99.90
7648;DHT22;3866;48.020;11.720;2023-03-04T00:48:11;0.80;99.90
7648;DHT22;3866;48.020;11.720;2023-03-04T00:50:38;0.90;99.90
7648;DHT22;3866;48.020;11.720;2023-03-04T00:53:07;0.90;99.90
7648;DHT22;3866;48.020;11.720;2023-03-04T00:55:34;0.80;99.90
7648;DHT22;3866;48.020;11.720;2023-03-04T00:58:01;0.90;99.90
7648;DHT22;3866;48.020;11.720;2023-03-04T01:00:28;0.80;99.90
7648;DHT22;3866;48.020;11.720;2023-03-04T01:02:55;0.80;99.90
7648;DHT22;3866;48.020;11.720;2023-03-04T01:05:22;0.70;99.90
7648;DHT22;3866;48.020;11.720;2023-03-04T01:07:48;0.80;99.90
7648;DHT22;3866;48.020;11.720;2023-03-04T01:10:17;0.80;99.90
7648;DHT22;3866;48.020;11.720;2023-03-04T01:12:44;0.80;99.90
7648;DHT22;3866;48.020;11.720;2023-03-04T01:15:12;0.80;99.90
7648;DHT22;3866;48.020;11.720;2023-03-04T01:17:40;0.80;99.90
7648;DHT22;3866;48.020;11.720;2023-03-04T01:20:08;0.90;99.90
7648;DHT22;3866;48.020;11.720;2023-03-04T01:22:35;0.90;99.90
7648;DHT22;3866;48.020;11.720;2023-03-04T01:25:02;0.90;99.90
7648;DHT22;3866;48.020;11.720;2023-03-04T01:27:30;0.90;99.90
7648;DHT22;3866;48.020;11.720;2023-03-04T01:29:57;0.90;99.90
7648;DHT22;3866;48.020;11.720;2023-03-04T01:32:24;0.90;99.90
7648;DHT22;3866;48.020;11.720;2023-03-04T01:34:51;1.20;99.90
7648;DHT22;3866;48.020;11.720;2023-03-04T01:37:18;1.20;99.90
7648;DHT22;3866;48.020;11.720;2023-03-04T01:39:45;1.30;99.90
7648;DHT22;3866;48.020;11.720;2023-03-04T01:42:16;1.20;99.90
7648;DHT22;3866;48.020;11.720;2023-03-04T01:44:46;1.20;99.90
7648;DHT22;3866;48.020;11.720;2023-03-04T01:47:13;1.30;99.90
7648;DHT22;3866;48.020;11.720;2023-03-04T01:49:41;1.50;99.90
7648;DHT22;3866;48.020;11.720;2023-03-04T01:52:11;1.50;99.90
7648;DHT22;3866;48.020;11.720;2023-03-04T01:54:38;1.50;99.90
7648;DHT22;3866;48.020;11.720;2023-03-04T01:57:15;1.40;99.90
7648;DHT22;3866;48.020;11.720;2023-03-04T01:59:43;1.50;99.90
7648;DHT22;3866;48.020;11.720;2023-03-04T02:02:11;1.50;99.90
7648;DHT22;3866;48.020;11.720;2023-03-04T02:04:40;1.50;99.90
7648;DHT22;3866;48.020;11.720;2023-03-04T02:07:07;1.60;99.90
7648;DHT22;3866;48.020;11.720;2023-03-04T02:09:35;1.50;99.90
7648;DHT22;3866;48.020;11.720;2023-03-04T02:12:02;1.60;99.90
7648;DHT22;3866;48.020;11.720;2023-03-04T02:14:29;1.50;99.90
7648;DHT22;3866;48.020;11.720;2023-03-04T02:16:56;1.50;99.90
7648;DHT22;3866;48.020;11.720;2023-03-04T02:19:38;1.40;99.90
7648;DHT22;3866;48.020;11.720;2023-03-04T02:22:08;1.50;99.90
7648;DHT22;3866;48.020;11.720;2023-03-04T02:24:39;1.40;99.90
7648;DHT22;3866;48.020;11.720;2023-03-04T02:27:08;1.50;99.90
7648;DHT22;3866;48.020;11.720;2023-03-04T02:29:35;1.50;99.90
7648;DHT22;3866;48.020;11.720;2023-03-04T02:32:03;1.40;99.90
7648;DHT22;3866;48.020;11.720;2023-03-04T02:34:32;1.40;99.90
7648;DHT22;3866;48.020;11.720;2023-03-04T02:37:01;1.40;99.90
7648;DHT22;3866;48.020;11.720;2023-03-04T02:39:31;1.40;99.90
7648;DHT22;3866;48.020;11.720;2023-03-04T02:41:59;1.40;99.90
7648;DHT22;3866;48.020;11.720;2023-03-04T02:44:29;1.60;99.90
7648;DHT22;3866;48.020;11.720;2023-03-04T02:46:58;1.50;99.90
7648;DHT22;3866;48.020;11.720;2023-03-04T02:49:27;1.50;99.90
7648;DHT22;3866;48.020;11.720;2023-03-04T02:51:59;1.40;99.90
7648;DHT22;3866;48.020;11.720;2023-03-04T02:54:27;1.50;99.90
7648;DHT22;3866;48.020;11.720;2023-03-04T02:56:56;1.40;99.90
7648;DHT22;3866;48.020;11.720;2023-03-04T02:59:23;1.40;99.90
7648;DHT22;3866;48.020;11.720;2023-03-04T03:01:51;1.40;99.90
7648;DHT22;3866;48.020;11.720;2023-03-04T03:04:19;1.40;99.90
7648;DHT22;3866;48.020;11.720;2023-03-04T03:06:47;1.40;99.90
7648;DHT22;3866;48.020;11.720;2023-03-04T03:09:14;1.50;99.90
7648;DHT22;3866;48.020;11.720;2023-03-04T03:11:40;1.40;99.90
7648;DHT22;3866;48.020;11.720;2023-03-04T03:14:07;1.30;99.90
7648;DHT22;3866;48.020;11.720;2023-03-04T03:16:34;1.10;99.90
7648;DHT22;3866;48.020;11.720;2023-03-04T03:19:02;1.10;99.90
7648;DHT22;3866;48.020;11.720;2023-03-04T03:21:29;1.00;99.90
7648;DHT22;3866;48.020;11.720;2023-03-04T03:23:56;0.90;99.90
7648;DHT22;3866;48.020;11.720;2023-03-04T03:26:23;0.90;99.90
7648;DHT22;3866;48.020;11.720;2023-03-04T03:28:50;0.90;99.90
7648;DHT22;3866;48.020;11.720;2023-03-04T03:31:17;0.80;99.90
7648;DHT22;3866;48.020;11.720;2023-03-04T03:33:44;0.70;99.90
7648;DHT22;3866;48.020;11.720;2023-03-04T03:36:13;0.70;99.90
7648;DHT22;3866;48.020;11.720;2023-03-04T03:38:39;0.70;99.90
7648;DHT22;3866;48.020;11.720;2023-03-04T03:41:06;0.60;99.90
7648;DHT22;3866;48.020;11.720;2023-03-04T03:43:33;0.60;99.90
7648;DHT22;3866;48.020;11.720;2023-03-04T03:46:00;0.50;99.90
7648;DHT22;3866;48.020;11.720;2023-03-04T03:48:27;0.50;99.90
7648;DHT22;3866;48.020;11.720;2023-03-04T03:50:54;0.40;99.90
7648;DHT22;3866;48.020;11.720;2023-03-04T03:53:22;0.30;99.90
7648;DHT22;3866;48.020;11.720;2023-03-04T03:55:49;0.50;99.90
7648;DHT22;3866;48.020;11.720;2023-03-04T03:58:16;0.40;99.90
7648;DHT22;3866;48.020;11.720;2023-03-04T04:00:43;0.40;99.90
7648;DHT22;3866;48.020;11.720;2023-03-04T04:03:13;0.20;99.90
7648;DHT22;3866;48.020;11.720;2023-03-04T04:05:40;0.20;99.90
7648;DHT22;3866;48.020;11.720;2023-03-04T04:08:10;0.20;99.90
7648;DHT22;3866;48.020;11.720;2023-03-04T04:10:39;0.20;99.90
7648;DHT22;3866;48.020;11.720;2023-03-04T04:13:06;0.10;99.90
7648;DHT22;3866;48.020;11.720;2023-03-04T04:15:33;0.10;99.90
7648;DHT22;3866;48.020;11.720;2023-03-04T04:18:01;0.00;99.90
7648;DHT22;3866;48.020;11.720;2023-03-04T04:20:28;0.00;99.90
7648;DHT22;3866;48.020;11.720;2023-03-04T04:22:55;-0.10;99.90
7648;DHT22;3866;48.020;11.720;2023-03-04T04:25:22;-0.20;99.90
7648;DHT22;3866;48.020;11.720;2023-03-04T04:27:50;-0.20;99.90
7648;DHT22;3866;48.020;11.720;2023-03-04T04:30:17;-0.10;99.90
7648;DHT22;3866;48.020;11.720;2023-03-04T04:32:44;-0.20;99.90
7648;DHT22;3866;48.020;11.720;2023-03-04T04:35:11;-0.10;99.90
7648;DHT22;3866;48.020;11.720;2023-03-04T04:37:38;-0.20;99.90
7648;DHT22;3866;48.020;11.720;2023-03-04T04:40:06;-0.20;99.90
7648;DHT22;3866;48.020;11.720;2023-03-04T04:42:33;-0.10;99.90
7648;DHT22;3866;48.020;11.720;2023-03-04T04:45:01;-0.10;99.90
7648;DHT22;3866;48.020;11.720;2023-03-04T04:47:29;-0.10;99.90
7648;DHT22;3866;48.020;11.720;2023-03-04T04:49:55;0.00;99.90
7648;DHT22;3866;48.020;11.720;2023-03-04T04:52:22;0.20;99.90
7648;DHT22;3866;48.020;11.720;2023-03-04T04:54:49;0.20;99.90
7648;DHT22;3866;48.020;11.720;2023-03-04T04:57:16;0.20;99.90
7648;DHT22;3866;48.020;11.720;2023-03-04T04:59:43;0.30;99.90
7648;DHT22;3866;48.020;11.720;2023-03-04T05:02:11;0.30;99.90
7648;DHT22;3866;48.020;11.720;2023-03-04T05:04:38;0.10;99.90
7648;DHT22;3866;48.020;11.720;2023-03-04T05:07:05;0.20;99.90
7648;DHT22;3866;48.020;11.720;2023-03-04T05:09:32;0.20;99.90
7648;DHT22;3866;48.020;11.720;2023-03-04T05:11:59;0.10;99.90
7648;DHT22;3866;48.020;11.720;2023-03-04T05:14:26;0.10;99.90
7648;DHT22;3866;48.020;11.720;2023-03-04T05:16:53;0.10;99.90
7648;DHT22;3866;48.020;11.720;2023-03-04T05:19:22;0.20;99.90
7648;DHT22;3866;48.020;11.720;2023-03-04T05:21:49;0.20;99.90
7648;DHT22;3866;48.020;11.720;2023-03-04T05:24:16;0.30;99.90
7648;DHT22;3866;48.020;11.720;2023-03-04T05:26:43;0.20;99.90
7648;DHT22;3866;48.020;11.720;2023-03-04T05:29:09;0.10;99.90
7648;DHT22;3866;48.020;11.720;2023-03-04T05:31:36;0.20;99.90
7648;DHT22;3866;48.020;11.720;2023-03-04T05:34:03;0.10;99.90
7648;DHT22;3866;48.020;11.720;2023-03-04T05:36:31;0.10;99.90
7648;DHT22;3866;48.020;11.720;2023-03-04T05:38:58;0.20;99.90
7648;DHT22;3866;48.020;11.720;2023-03-04T05:41:25;0.10;99.90
7648;DHT22;3866;48.020;11.720;2023-03-04T05:43:52;0.10;99.90
7648;DHT22;3866;48.020;11.720;2023-03-04T05:46:19;0.00;99.90
7648;DHT22;3866;48.020;11.720;2023-03-04T05:48:50;0.10;99.90
7648;DHT22;3866;48.020;11.720;2023-03-04T05:51:17;0.00;99.90
7648;DHT22;3866;48.020;11.720;2023-03-04T05:53:46;0.00;99.90
7648;DHT22;3866;48.020;11.720;2023-03-04T05:56:15;0.00;99.90
7648;DHT22;3866;48.020;11.720;2023-03-04T05:58:43;0.00;99.90
7648;DHT22;3866;48.020;11.720;2023-03-04T06:01:12;-0.10;99.90
7648;DHT22;3866;48.020;11.720;2023-03-04T06:03:39;0.00;99.90
7648;DHT22;3866;48.020;11.720;2023-03-04T06:06:08;0.00;99.90
7648;DHT22;3866;48.020;11.720;2023-03-04T06:08:35;0.00;99.90
7648;DHT22;3866;48.020;11.720;2023-03-04T06:11:03;0.00;99.90
7648;DHT22;3866;48.020;11.720;2023-03-04T06:13:30;0.00;99.90
7648;DHT22;3866;48.020;11.720;2023-03-04T06:15:58;-0.10;99.90
7648;DHT22;3866;48.020;11.720;2023-03-04T06:18:26;0.00;99.90
7648;DHT22;3866;48.020;11.720;2023-03-04T06:20:55;0.00;99.90
7648;DHT22;3866;48.020;11.720;2023-03-04T06:23:22;0.00;99.90
7648;DHT22;3866;48.020;11.720;2023-03-04T06:25:51;0.00;99.90
7648;DHT22;3866;48.020;11.720;2023-03-04T06:28:20;0.10;99.90
7648;DHT22;3866;48.020;11.720;2023-03-04T06:30:47;0.20;99.90
7648;DHT22;3866;48.020;11.720;2023-03-04T06:33:14;0.20;99.90
7648;DHT22;3866;48.020;11.720;2023-03-04T06:35:41;0.30;99.90
7648;DHT22;3866;48.020;11.720;2023-03-04T06:38:08;0.40;99.90
7648;DHT22;3866;48.020;11.720;2023-03-04T06:40:35;0.40;99.90
7648;DHT22;3866;48.020;11.720;2023-03-04T06:43:01;0.60;99.90
7648;DHT22;3866;48.020;11.720;2023-03-04T06:45:30;0.70;99.90
7648;DHT22;3866;48.020;11.720;2023-03-04T06:47:57;0.90;99.90
7648;DHT22;3866;48.020;11.720;2023-03-04T06:50:23;1.10;99.90
7648;DHT22;3866;48.020;11.720;2023-03-04T06:52:50;1.20;99.90
7648;DHT22;3866;48.020;11.720;2023-03-04T06:55:17;1.30;99.90
7648;DHT22;3866;48.020;11.720;2023-03-04T06:57:44;1.40;99.90
7648;DHT22;3866;48.020;11.720;2023-03-04T07:00:12;1.60;99.90
7648;DHT22;3866;48.020;11.720;2023-03-04T07:02:41;1.50;99.90
7648;DHT22;3866;48.020;11.720;2023-03-04T07:05:08;1.70;99.90
7648;DHT22;3866;48.020;11.720;2023-03-04T07:07:36;1.70;99.90
7648;DHT22;3866;48.020;11.720;2023-03-04T07:10:03;1.70;99.90
7648;DHT22;3866;48.020;11.720;2023-03-04T07:12:30;1.80;99.90
7648;DHT22;3866;48.020;11.720;2023-03-04T07:14:57;1.90;99.90
7648;DHT22;3866;48.020;11.720;2023-03-04T07:17:24;2.10;99.90
7648;DHT22;3866;48.020;11.720;2023-03-04T07:19:52;2.20;99.90
7648;DHT22;3866;48.020;11.720;2023-03-04T07:22:19;2.30;99.90
7648;DHT22;3866;48.020;11.720;2023-03-04T07:24:46;2.20;99.90
7648;DHT22;3866;48.020;11.720;2023-03-04T07:27:13;2.30;99.90
7648;DHT22;3866;48.020;11.720;2023-03-04T07:29:40;2.50;99.90
7648;DHT22;3866;48.020;11.720;2023-03-04T07:32:07;2.60;99.90
7648;DHT22;3866;48.020;11.720;2023-03-04T07:34:34;2.70;99.90
7648;DHT22;3866;48.020;11.720;2023-03-04T07:37:02;3.00;99.90
7648;DHT22;3866;48.020;11.720;2023-03-04T07:39:29;3.00;99.90
7648;DHT22;3866;48.020;11.720;2023-03-04T07:41:56;3.20;99.90
7648;DHT22;3866;48.020;11.720;2023-03-04T07:44:23;3.40;99.90
7648;DHT22;3866;48.020;11.720;2023-03-04T07:46:50;3.70;99.90
7648;DHT22;3866;48.020;11.720;2023-03-04T07:49:17;3.70;99.90
7648;DHT22;3866;48.020;11.720;2023-03-04T07:51:44;4.00;99.90
7648;DHT22;3866;48.020;11.720;2023-03-04T07:54:12;4.10;99.90
7648;DHT22;3866;48.020;11.720;2023-03-04T07:56:39;4.40;99.90
7648;DHT22;3866;48.020;11.720;2023-03-04T07:59:06;4.50;99.90
7648;DHT22;3866;48.020;11.720;2023-03-04T08:01:34;4.50;99.90
7648;DHT22;3866;48.020;11.720;2023-03-04T08:04:03;4.70;99.90
7648;DHT22;3866;48.020;11.720;2023-03-04T08:06:30;4.80;99.90
7648;DHT22;3866;48.020;11.720;2023-03-04T08:08:59;4.60;99.90
7648;DHT22;3866;48.020;11.720;2023-03-04T08:11:28;4.50;99.90
7648;DHT22;3866;48.020;11.720;2023-03-04T08:13:56;4.60;99.90
7648;DHT22;3866;48.020;11.720;2023-03-04T08:16:24;4.70;99.90
7648;DHT22;3866;48.020;11.720;2023-03-04T08:18:53;4.80;99.90
7648;DHT22;3866;48.020;11.720;2023-03-04T08:21:21;5.00;99.90
7648;DHT22;3866;48.020;11.720;2023-03-04T08:23:49;5.30;99.90
7648;DHT22;3866;48.020;11.720;2023-03-04T08:26:18;5.90;99.90
7648;DHT22;3866;48.020;11.720;2023-03-04T08:28:47;5.80;99.90
7648;DHT22;3866;48.020;11.720;2023-03-04T08:31:15;5.70;99.90
7648;DHT22;3866;48.020;11.720;2023-03-04T08:33:43;5.40;99.90
7648;DHT22;3866;48.020;11.720;2023-03-04T08:36:11;5.20;99.90
7648;DHT22;3866;48.020;11.720;2023-03-04T08:38:38;6.10;99.90
7648;DHT22;3866;48.020;11.720;2023-03-04T08:41:05;5.90;99.90
7648;DHT22;3866;48.020;11.720;2023-03-04T08:43:32;7.00;99.90
7648;DHT22;3866;48.020;11.720;2023-03-04T08:46:01;7.60;99.90
7648;DHT22;3866;48.020;11.720;2023-03-04T08:48:29;7.40;99.90
7648;DHT22;3866;48.020;11.720;2023-03-04T08:50:55;7.40;99.90
7648;DHT22;3866;48.020;11.720;2023-03-04T08:53:23;7.10;99.90
7648;DHT22;3866;48.020;11.720;2023-03-04T08:55:50;7.30;99.90
7648;DHT22;3866;48.020;11.720;2023-03-04T08:58:18;7.50;99.90
7648;DHT22;3866;48.020;11.720;2023-03-04T09:00:47;7.70;99.90
7648;DHT22;3866;48.020;11.720;2023-03-04T09:03:17;7.70;99.90
7648;DHT22;3866;48.020;11.720;2023-03-04T09:05:45;6.90;99.90
7648;DHT22;3866;48.020;11.720;2023-03-04T09:08:13;6.60;99.90
7648;DHT22;3866;48.020;11.720;2023-03-04T09:10:40;6.90;99.90
7648;DHT22;3866;48.020;11.720;2023-03-04T09:13:06;7.20;99.90
7648;DHT22;3866;48.020;11.720;2023-03-04T09:15:36;6.90;99.90
7648;DHT22;3866;48.020;11.720;2023-03-04T09:18:04;6.70;99.90
7648;DHT22;3866;48.020;11.720;2023-03-04T09:20:33;6.60;99.90
7648;DHT22;3866;48.020;11.720;2023-03-04T09:22:59;7.50;99.90
7648;DHT22;3866;48.020;11.720;2023-03-04T09:25:27;6.40;99.90
7648;DHT22;3866;48.020;11.720;2023-03-04T09:27:53;6.20;99.90
7648;DHT22;3866;48.020;11.720;2023-03-04T09:30:21;6.50;99.90
7648;DHT22;3866;48.020;11.720;2023-03-04T09:32:48;6.90;99.90
7648;DHT22;3866;48.020;11.720;2023-03-04T09:35:14;6.80;99.90
7648;DHT22;3866;48.020;11.720;2023-03-04T09:37:43;7.10;99.90
7648;DHT22;3866;48.020;11.720;2023-03-04T09:40:16;7.00;99.90
7648;DHT22;3866;48.020;11.720;2023-03-04T09:42:46;6.50;99.90
7648;DHT22;3866;48.020;11.720;2023-03-04T09:45:16;6.90;99.90
7648;DHT22;3866;48.020;11.720;2023-03-04T09:47:45;6.90;99.90
7648;DHT22;3866;48.020;11.720;2023-03-04T09:50:12;7.40;99.90
7648;DHT22;3866;48.020;11.720;2023-03-04T09:53:02;7.80;99.90
7648;DHT22;3866;48.020;11.720;2023-03-04T09:55:34;7.60;99.90
7648;DHT22;3866;48.020;11.720;2023-03-04T09:58:06;7.80;99.90
7648;DHT22;3866;48.020;11.720;2023-03-04T10:00:38;7.70;99.90
7648;DHT22;3866;48.020;11.720;2023-03-04T10:03:15;8.10;99.90
7648;DHT22;3866;48.020;11.720;2023-03-04T10:05:49;7.90;99.90
7648;DHT22;3866;48.020;11.720;2023-03-04T10:08:37;8.00;99.90
7648;DHT22;3866;48.020;11.720;2023-03-04T10:11:12;8.20;99.90
7648;DHT22;3866;48.020;11.720;2023-03-04T10:13:45;8.60;99.90
7648;DHT22;3866;48.020;11.720;2023-03-04T10:16:19;9.30;99.90
7648;DHT22;3866;48.020;11.720;2023-03-04T10:18:50;9.00;99.90
7648;DHT22;3866;48.020;11.720;2023-03-04T10:21:22;8.70;99.90
7648;DHT22;3866;48.020;11.720;2023-03-04T10:23:50;8.90;99.90
7648;DHT22;3866;48.020;11.720;2023-03-04T10:26:20;9.00;99.90
7648;DHT22;3866;48.020;11.720;2023-03-04T10:28:49;9.10;99.90
7648;DHT22;3866;48.020;11.720;2023-03-04T10:31:20;9.50;99.90
7648;DHT22;3866;48.020;11.720;2023-03-04T10:33:52;9.90;99.90
7648;DHT22;3866;48.020;11.720;2023-03-04T10:36:35;10.30;99.90
7648;DHT22;3866;48.020;11.720;2023-03-04T10:39:07;10.50;99.90
7648;DHT22;3866;48.020;11.720;2023-03-04T10:41:34;9.70;99.90
7648;DHT22;3866;48.020;11.720;2023-03-04T10:44:04;9.30;99.90
7648;DHT22;3866;48.020;11.720;2023-03-04T10:46:38;9.70;99.90
7648;DHT22;3866;48.020;11.720;2023-03-04T10:49:05;9.60;99.90
7648;DHT22;3866;48.020;11.720;2023-03-04T10:51:38;10.30;99.90
7648;DHT22;3866;48.020;11.720;2023-03-04T10:54:15;10.40;99.90
7648;DHT22;3866;48.020;11.720;2023-03-04T10:56:54;10.60;99.90
7648;DHT22;3866;48.020;11.720;2023-03-04T10:59:40;10.40;99.90
7648;DHT22;3866;48.020;11.720;2023-03-04T11:02:30;10.10;99.90
7648;DHT22;3866;48.020;11.720;2023-03-04T11:05:17;10.20;99.90
7648;DHT22;3866;48.020;11.720;2023-03-04T11:07:47;9.90;99.90
7648;DHT22;3866;48.020;11.720;2023-03-04T11:10:19;10.30;99.90
7648;DHT22;3866;48.020;11.720;2023-03-04T11:12:50;10.40;99.90
7648;DHT22;3866;48.020;11.720;2023-03-04T11:15:20;10.40;99.90
7648;DHT22;3866;48.020;11.720;2023-03-04T11:17:52;10.10;99.90
7648;DHT22;3866;48.020;11.720;2023-03-04T11:20:27;9.40;99.90
7648;DHT22;3866;48.020;11.720;2023-03-04T11:22:59;9.40;99.90
7648;DHT22;3866;48.020;11.720;2023-03-04T11:25:31;9.40;99.90
7648;DHT22;3866;48.020;11.720;2023-03-04T11:28:01;9.10;99.90
7648;DHT22;3866;48.020;11.720;2023-03-04T11:30:33;9.60;99.90
7648;DHT22;3866;48.020;11.720;2023-03-04T11:33:11;9.70;99.90
7648;DHT22;3866;48.020;11.720;2023-03-04T11:35:45;9.80;99.90
7648;DHT22;3866;48.020;11.720;2023-03-04T11:38:17;10.50;99.90
7648;DHT22;3866;48.020;11.720;2023-03-04T11:40:49;10.70;99.90
7648;DHT22;3866;48.020;11.720;2023-03-04T11:43:21;11.20;99.90
7648;DHT22;3866;48.020;11.720;2023-03-04T11:46:15;11.30;99.90
7648;DHT22;3866;48.020;11.720;2023-03-04T11:48:52;11.50;99.90
7648;DHT22;3866;48.020;11.720;2023-03-04T11:51:31;11.50;99.90
7648;DHT22;3866;48.020;11.720;2023-03-04T11:54:11;11.40;99.90
7648;DHT22;3866;48.020;11.720;2023-03-04T11:56:45;11.10;99.90
7648;DHT22;3866;48.020;11.720;2023-03-04T11:59:25;11.00;99.90
7648;DHT22;3866;48.020;11.720;2023-03-04T12:02:00;10.40;99.90
7648;DHT22;3866;48.020;11.720;2023-03-04T12:05:03;10.90;99.90
7648;DHT22;3866;48.020;11.720;2023-03-04T12:07:49;10.90;99.90
7648;DHT22;3866;48.020;11.720;2023-03-04T12:10:24;10.90;99.90
7648;DHT22;3866;48.020;11.720;2023-03-04T12:13:20;10.50;99.90
7648;DHT22;3866;48.020;11.720;2023-03-04T12:15:58;9.90;99.90
7648;DHT22;3866;48.020;11.720;2023-03-04T12:18:43;10.00;99.90
7648;DHT22;3866;48.020;11.720;2023-03-04T12:21:22;10.60;99.90
7648;DHT22;3866;48.020;11.720;2023-03-04T12:24:18;10.50;99.90
7648;DHT22;3866;48.020;11.720;2023-03-04T12:26:54;10.90;99.90
7648;DHT22;3866;48.020;11.720;2023-03-04T12:29:30;11.20;99.90
7648;DHT22;3866;48.020;11.720;2023-03-04T12:32:05;11.10;99.90
7648;DHT22;3866;48.020;11.720;2023-03-04T12:34:59;11.30;99.90
7648;DHT22;3866;48.020;11.720;2023-03-04T12:37:44;11.50;99.90
7648;DHT22;3866;48.020;11.720;2023-03-04T12:40:25;11.10;99.90
7648;DHT22;3866;48.020;11.720;2023-03-04T12:43:14;11.40;99.90
7648;DHT22;3866;48.020;11.720;2023-03-04T12:45:53;11.50;99.90
7648;DHT22;3866;48.020;11.720;2023-03-04T12:48:28;11.60;99.90
7648;DHT22;3866;48.020;11.720;2023-03-04T12:51:09;11.60;99.90
7648;DHT22;3866;48.020;11.720;2023-03-04T12:53:45;11.70;99.90
7648;DHT22;3866;48.020;11.720;2023-03-04T12:56:22;11.60;99.90
7648;DHT22;3866;48.020;11.720;2023-03-04T12:58:51;11.70;99.90
7648;DHT22;3866;48.020;11.720;2023-03-04T13:01:24;11.30;99.90
7648;DHT22;3866;48.020;11.720;2023-03-04T13:03:56;11.40;99.90
7648;DHT22;3866;48.020;11.720;2023-03-04T13:06:35;11.40;99.90
7648;DHT22;3866;48.020;11.720;2023-03-04T13:09:08;11.60;99.90
7648;DHT22;3866;48.020;11.720;2023-03-04T13:11:50;11.50;99.90
7648;DHT22;3866;48.020;11.720;2023-03-04T13:14:27;11.40;99.90
7648;DHT22;3866;48.020;11.720;2023-03-04T13:16:57;11.40;99.90
7648;DHT22;3866;48.020;11.720;2023-03-04T13:19:47;11.70;99.90
7648;DHT22;3866;48.020;11.720;2023-03-04T13:22:32;11.30;99.90
7648;DHT22;3866;48.020;11.720;2023-03-04T13:27:45;10.70;99.90
7648;DHT22;3866;48.020;11.720;2023-03-04T13:30:39;10.70;99.90
7648;DHT22;3866;48.020;11.720;2023-03-04T13:33:46;10.30;99.90
7648;DHT22;3866;48.020;11.720;2023-03-04T13:36:32;10.40;99.90
7648;DHT22;3866;48.020;11.720;2023-03-04T13:39:01;10.40;99.90
7648;DHT22;3866;48.020;11.720;2023-03-04T13:41:31;10.40;99.90
7648;DHT22;3866;48.020;11.720;2023-03-04T13:43:59;10.10;99.90
7648;DHT22;3866;48.020;11.720;2023-03-04T13:46:44;10.00;99.90
7648;DHT22;3866;48.020;11.720;2023-03-04T13:49:20;9.50;99.90
7648;DHT22;3866;48.020;11.720;2023-03-04T13:51:49;9.50;99.90
7648;DHT22;3866;48.020;11.720;2023-03-04T13:54:20;9.40;99.90
7648;DHT22;3866;48.020;11.720;2023-03-04T13:57:10;9.70;99.90
7648;DHT22;3866;48.020;11.720;2023-03-04T13:59:40;10.00;99.90
7648;DHT22;3866;48.020;11.720;2023-03-04T14:02:11;9.80;99.90
7648;DHT22;3866;48.020;11.720;2023-03-04T14:04:42;10.00;99.90
7648;DHT22;3866;48.020;11.720;2023-03-04T14:07:23;9.90;99.90
7648;DHT22;3866;48.020;11.720;2023-03-04T14:09:55;10.10;99.90
7648;DHT22;3866;48.020;11.720;2023-03-04T14:12:22;10.50;99.90
7648;DHT22;3866;48.020;11.720;2023-03-04T14:14:52;10.50;99.90
7648;DHT22;3866;48.020;11.720;2023-03-04T14:17:23;10.10;99.90
7648;DHT22;3866;48.020;11.720;2023-03-04T14:19:52;10.00;99.90
7648;DHT22;3866;48.020;11.720;2023-03-04T14:22:22;9.40;99.90
7648;DHT22;3866;48.020;11.720;2023-03-04T14:24:59;9.10;99.90
7648;DHT22;3866;48.020;11.720;2023-03-04T14:27:28;8.90;99.90
7648;DHT22;3866;48.020;11.720;2023-03-04T14:29:58;8.20;99.90
7648;DHT22;3866;48.020;11.720;2023-03-04T14:32:26;8.20;99.90
7648;DHT22;3866;48.020;11.720;2023-03-04T14:34:58;8.40;99.90
7648;DHT22;3866;48.020;11.720;2023-03-04T14:37:32;8.40;99.90
7648;DHT22;3866;48.020;11.720;2023-03-04T14:40:04;8.10;99.90
7648;DHT22;3866;48.020;11.720;2023-03-04T14:42:38;8.60;99.90
7648;DHT22;3866;48.020;11.720;2023-03-04T14:45:10;8.80;99.90
7648;DHT22;3866;48.020;11.720;2023-03-04T14:47:40;9.20;99.90
7648;DHT22;3866;48.020;11.720;2023-03-04T14:50:13;9.40;99.90
7648;DHT22;3866;48.020;11.720;2023-03-04T14:52:42;9.50;99.90
7648;DHT22;3866;48.020;11.720;2023-03-04T14:55:22;9.70;99.90
7648;DHT22;3866;48.020;11.720;2023-03-04T14:57:50;9.60;99.90
7648;DHT22;3866;48.020;11.720;2023-03-04T15:00:28;9.20;99.90
7648;DHT22;3866;48.020;11.720;2023-03-04T15:02:56;9.30;99.90
7648;DHT22;3866;48.020;11.720;2023-03-04T15:05:27;9.60;99.90
7648;DHT22;3866;48.020;11.720;2023-03-04T15:07:56;9.60;99.90
7648;DHT22;3866;48.020;11.720;2023-03-04T15:10:26;9.50;99.90
7648;DHT22;3866;48.020;11.720;2023-03-04T15:12:54;8.80;99.90
7648;DHT22;3866;48.020;11.720;2023-03-04T15:15:36;8.10;99.90
7648;DHT22;3866;48.020;11.720;2023-03-04T15:18:20;7.70;99.90
7648;DHT22;3866;48.020;11.720;2023-03-04T15:20:56;7.20;99.90
7648;DHT22;3866;48.020;11.720;2023-03-04T15:23:24;7.00;99.90
7648;DHT22;3866;48.020;11.720;2023-03-04T15:25:52;7.20;99.90
7648;DHT22;3866;48.020;11.720;2023-03-04T15:28:20;6.70;99.90
7648;DHT22;3866;48.020;11.720;2023-03-04T15:30:48;6.50;99.90
7648;DHT22;3866;48.020;11.720;2023-03-04T15:33:15;6.60;99.90
7648;DHT22;3866;48.020;11.720;2023-03-04T15:35:51;6.20;99.90
7648;DHT22;3866;48.020;11.720;2023-03-04T15:38:20;6.00;99.90
7648;DHT22;3866;48.020;11.720;2023-03-04T15:40:47;5.80;99.90
7648;DHT22;3866;48.020;11.720;2023-03-04T15:43:17;5.90;99.90
7648;DHT22;3866;48.020;11.720;2023-03-04T15:45:45;5.80;99.90
7648;DHT22;3866;48.020;11.720;2023-03-04T15:48:14;6.00;99.90
7648;DHT22;3866;48.020;11.720;2023-03-04T15:50:43;6.30;99.90
7648;DHT22;3866;48.020;11.720;2023-03-04T15:53:13;5.70;99.90
7648;DHT22;3866;48.020;11.720;2023-03-04T15:55:45;5.90;99.90
7648;DHT22;3866;48.020;11.720;2023-03-04T15:58:12;5.60;99.90
7648;DHT22;3866;48.020;11.720;2023-03-04T16:00:40;5.40;99.90
7648;DHT22;3866;48.020;11.720;2023-03-04T16:03:13;5.50;99.90
7648;DHT22;3866;48.020;11.720;2023-03-04T16:05:40;5.30;99.90
7648;DHT22;3866;48.020;11.720;2023-03-04T16:08:10;4.90;99.90
7648;DHT22;3866;48.020;11.720;2023-03-04T16:10:37;4.80;99.90
7648;DHT22;3866;48.020;11.720;2023-03-04T16:13:08;4.70;99.90
7648;DHT22;3866;48.020;11.720;2023-03-04T16:15:37;4.50;99.90
7648;DHT22;3866;48.020;11.720;2023-03-04T16:18:04;4.10;99.90
7648;DHT22;3866;48.020;11.720;2023-03-04T16:20:32;3.80;99.90
7648;DHT22;3866;48.020;11.720;2023-03-04T16:23:00;3.50;99.90